Create Tblcommutelog Verified Points Advance Search
| # | Trip ID | Id Commuter | Trip Date | Trip Num | Current Lat | Current Lng | Delta Distance | Current Time | Activity | Activity Confidence | Current Speed | |
|---|---|---|---|---|---|---|---|---|---|---|---|---|
| 71481 | 260121_788537_16416993_0653 | 788537 | (not set) | (not set) | 39.081565532622 | -76.706863748604 | 2.2215 | 2026-01-21 06:59:22 | in_vehicle | 100 | 7.2420359956011 | |
| 71482 | 260121_790094_16496156_0651 | 790094 | (not set) | (not set) | 39.063811677751 | -77.122860999238 | 4.5635 | 2026-01-21 06:59:30 | in_vehicle | 100 | 8.6815024095416 | |
| 71483 | 260121_788506_16467722_0656 | 788506 | (not set) | (not set) | 38.928871537055 | -77.036473408322 | 0.3245 | 2026-01-21 06:59:38 | on_foot | 100 | 3.3572648349978 | |
| 71484 | 260121_714319_16514952_0640 | 714319 | (not set) | (not set) | 38.79519023727 | -77.186647290527 | 9.1091 | 2026-01-21 06:59:41 | in_vehicle | 100 | 13.433529732581 | |
| 71485 | 260121_788077_16505268_0627 | 788077 | (not set) | (not set) | 38.792606185131 | -77.037402787141 | 28.9654 | 2026-01-21 06:59:49 | in_vehicle | 100 | 12.771911629279 | |
| 71486 | 260121_787968_16505268_0621 | 787968 | (not set) | (not set) | 38.7926335 | -77.035947383333 | 29.0197 | 2026-01-21 06:59:53 | in_vehicle | 100 | 12.534980822016 | |
| 71487 | 260121_784815_16448780_0632 | 784815 | (not set) | (not set) | 39.221739351849 | -76.6943683992 | 8.1929 | 2026-01-21 07:00:00 | in_vehicle | 100 | 11.551494452243 | |
| 71488 | 260121_791179_6424413_0621 | 791179 | (not set) | (not set) | 38.811984525672 | -77.147123216135 | 30.0556 | 2026-01-21 07:00:06 | in_vehicle | 100 | 14.452779243073 | |
| 71489 | 260121_790094_16496156_0651 | 790094 | (not set) | (not set) | 39.062507395596 | -77.121329036927 | 4.6899 | 2026-01-21 07:00:15 | in_vehicle | 100 | 0 | |
| 71490 | 260121_779684_16420702_0635 | 779684 | (not set) | (not set) | 39.041290682785 | -76.991373753754 | 14.7274 | 2026-01-21 07:00:20 | in_vehicle | 100 | 1.1623020733681 | |
| 71491 | 260121_791179_6424413_0621 | 791179 | (not set) | (not set) | 38.814979149335 | -77.139835277714 | 30.4999 | 2026-01-21 07:00:28 | in_vehicle | 100 | 14.814881042853 | |
| 71492 | 260121_764454_16507126_0656 | 764454 | (not set) | (not set) | 38.9143249 | -77.5187222 | 0.1525 | 2026-01-21 07:00:36 | in_vehicle | 100 | 1.7926274285408 | |
| 71493 | 260121_784692_16513841_0621 | 784692 | (not set) | (not set) | 38.79382278299 | -77.019654449895 | 29.9286 | 2026-01-21 07:00:43 | in_vehicle | 100 | 12.973079295824 | |
| 71494 | 260121_791179_6424413_0621 | 791179 | (not set) | (not set) | 38.818721837733 | -77.131419692558 | 31.0228 | 2026-01-21 07:00:54 | in_vehicle | 100 | 14.023621554445 | |
| 71495 | 260121_790094_16496156_0651 | 790094 | (not set) | (not set) | 39.05808016516 | -77.115735317235 | 5.1198 | 2026-01-21 07:00:58 | in_vehicle | 100 | 10.679767897217 | |
| 71496 | 260121_790160_16516342_0629 | 790160 | (not set) | (not set) | 38.943171280241 | -77.077225720644 | 13.2376 | 2026-01-21 07:01:08 | in_vehicle | 100 | 0.66161810330183 | |
| 71497 | 260121_765140_0_0646 | 765140 | (not set) | (not set) | 39.177809301923 | -76.877482907395 | 1.8153 | 2026-01-21 06:55:00 | unknown | 100 | 9.0972489204002 | |
| 71498 | 260121_787968_16505268_0621 | 787968 | (not set) | (not set) | 38.7956736 | -77.139531383333 | 23.254 | 2026-01-21 06:55:06 | in_vehicle | 100 | 14.282904324658 | |
| 71499 | 260121_779684_16420702_0635 | 779684 | (not set) | (not set) | 39.081316014554 | -77.001096936411 | 11.8312 | 2026-01-21 06:55:15 | in_vehicle | 100 | 8.6457392688226 | |
| 71500 | 260121_760357_16478572_0646 | 760357 | (not set) | (not set) | 38.916806259711 | -76.918978745599 | 5.3286 | 2026-01-21 06:55:20 | in_vehicle | 100 | 15.731311523778 |